Chadstone Weather > Observations for 11/10/20

Select Day:



Observations
Time Temp Hum DP Wind Gust Dir Rain >9am Press
C % C kph kph mm hPa
00:00 13.8 79 10.2 1.0 7.2 SW 0.0 1027.4
00:10 13.8 79 10.2 0.5 7.2 W 0.0 1027.1
00:20 13.7 79 10.1 0.9 7.2 WSW 0.0 1027.0
00:30 13.7 79 10.1 1.1 5.0 S 0.0 1027.0
00:40 13.7 80 10.3 0.4 5.0 SSW 0.0 1027.0
00:50 13.7 80 10.3 0.1 5.0 SW 0.0 1027.0
01:00 13.7 80 10.3 0.8 3.6 SSW 0.0 1027.0
01:10 13.7 80 10.3 0.4 5.0 SW 0.0 1027.1
01:20 13.7 81 10.5 0.4 3.6 SW 0.0 1027.0
01:30 13.7 81 10.5 1.0 6.1 SW 0.0 1026.9
01:40 13.7 81 10.5 0.9 6.1 N 0.0 1026.9
01:50 13.7 81 10.5 1.7 7.2 SW 0.0 1026.9
02:00 13.6 80 10.2 2.2 8.6 SW 0.0 1026.9
02:10 13.6 80 10.2 1.3 7.2 W 0.0 1026.7
02:20 13.7 80 10.3 0.8 6.1 W 0.0 1026.7
02:30 13.6 81 10.4 0.9 6.1 WSW 0.0 1026.8
02:40 13.5 81 10.3 2.4 8.6 WSW 0.0 1026.7
02:50 13.5 81 10.3 1.1 9.7 WSW 0.0 1026.5
03:00 13.4 82 10.4 0.6 7.2 SW 0.0 1026.6
03:10 13.4 82 10.4 0.7 5.0 SSE 0.0 1026.4
03:20 13.2 83 10.4 2.2 9.7 WSW 0.0 1026.5
03:30 13.0 83 10.2 0.5 6.1 SSW 0.0 1026.5
03:40 12.9 83 10.1 0.7 5.0 SSW 0.0 1026.5
03:50 12.7 83 9.9 0.4 5.0 SW 0.0 1026.5
04:00 12.5 83 9.7 0.3 2.5 SSW 0.0 1026.6
04:10 12.3 83 9.5 0.5 7.2 SSW 0.0 1026.7
04:20 12.2 83 9.4 0.0 2.5 S 0.0 1026.7
04:30 12.2 83 9.4 0.0 1.1 S 0.0 1026.5
04:40 12.1 83 9.3 0.0 0.0 N 0.0 1026.5
04:50 12.0 84 9.4 0.0 0.0 N 0.0 1026.5
05:00 12.0 84 9.4 0.0 1.1 S 0.0 1026.6
05:10 11.9 85 9.5 0.9 6.1 SSW 0.0 1026.4
05:20 11.9 85 9.5 0.6 6.1 S 0.0 1026.6
05:30 11.9 85 9.5 0.4 5.0 SW 0.0 1026.7
05:40 12.0 84 9.4 0.1 3.6 SSE 0.0 1026.7
05:50 12.0 84 9.4 0.3 2.5 SSE 0.0 1026.9
06:00 12.0 83 9.2 0.1 5.0 S 0.0 1027.0
06:10 12.1 83 9.3 0.0 2.5 SSW 0.0 1027.2
06:20 12.1 82 9.1 0.3 9.7 WSW 0.0 1027.4
06:30 12.1 82 9.1 1.3 5.0 S 0.0 1027.5
06:40 12.1 82 9.1 0.2 6.1 SSW 0.0 1027.7
06:50 12.1 83 9.3 4.3 8.6 SSE 0.0 1027.9
07:00 12.1 83 9.3 2.3 8.6 SSE 0.0 1028.0
07:10 12.1 84 9.5 2.2 6.1 SE 0.0 1028.0
07:20 12.1 85 9.7 0.9 5.0 SE 0.0 1028.1
07:30 12.2 85 9.8 0.2 5.0 SE 0.0 1028.4
07:40 12.2 85 9.8 0.0 1.1 SSE 0.0 1028.4
07:50 12.3 85 9.9 0.0 1.1 SSE 0.0 1028.6
08:00 12.4 85 10.0 0.0 2.5 NNE 0.0 1028.7
08:10 12.6 85 10.1 0.0 0.0 N 0.0 1028.8
08:20 12.7 85 10.2 0.6 5.0 SW 0.0 1028.9
08:30 12.8 84 10.2 1.6 6.1 SSW 0.0 1029.0
08:40 12.8 82 9.8 1.0 5.0 S 0.0 1029.3
08:50 12.9 81 9.7 1.5 6.1 S 0.0 1029.2
09:00 13.1 78 9.4 2.0 8.6 SSW 0.0 1029.4
09:10 13.0 78 9.3 2.8 9.7 SSW 0.0 1029.4
09:20 12.8 77 8.9 3.6 11.2 SW 0.0 1029.5
09:30 12.9 75 8.6 2.3 9.7 S 0.0 1029.5
09:40 13.0 75 8.7 3.8 12.2 SSW 0.0 1029.5
09:50 13.2 74 8.7 4.7 13.3 S 0.0 1029.5
10:00 13.3 74 8.8 4.9 11.2 SSE 0.0 1029.6
10:10 13.5 74 9.0 2.2 9.7 SSW 0.0 1029.6
10:20 13.6 74 9.1 3.4 11.2 ESE 0.0 1029.6
10:30 13.9 72 8.9 4.8 13.3 S 0.0 1029.5
10:40 14.0 70 8.6 3.6 13.3 S 0.0 1029.6
10:50 13.9 72 8.9 3.5 14.8 SW 0.0 1029.7
11:00 13.9 72 8.9 1.8 9.7 WSW 0.0 1029.7
11:10 13.9 71 8.7 2.0 8.6 SW 0.0 1029.5
11:20 14.0 68 8.2 3.8 15.8 SW 0.0 1029.4
11:30 14.0 66 7.8 4.5 14.8 SSW 0.0 1029.5
11:40 14.4 65 7.9 4.3 14.8 S 0.0 1029.4
11:50 14.6 64 7.9 6.2 17.3 S 0.0 1029.3
12:00 15.0 61 7.5 3.7 17.3 SSW 0.0 1030.0
12:10 15.2 59 7.2 4.0 15.8 SSW 0.0 1030.1
12:20 15.6 57 7.1 4.5 11.2 SSW 0.0 1030.2
12:30 15.7 56 7.0 3.9 12.2 S 0.0 1030.2
12:40 15.7 57 7.2 4.7 11.2 NW 0.0 1030.2
12:50 16.3 54 7.0 3.4 9.7 W 0.0 1030.1
13:00 16.5 54 7.2 2.3 8.6 SW 0.0 1030.1
13:10 16.7 53 7.1 5.7 11.2 SSW 0.0 1030.1
13:20 16.7 53 7.1 3.8 9.7 SW 0.0 1029.9
13:30 16.7 53 7.1 2.1 7.2 S 0.0 1029.8
13:40 17.0 53 7.4 3.1 11.2 SSW 0.0 1029.9
13:50 17.1 52 7.2 5.4 14.8 W 0.0 1029.8
14:00 17.6 51 7.4 3.8 9.7 W 0.0 1029.7
14:10 17.2 51 7.0 6.3 15.8 SSW 0.0 1029.7
14:20 17.0 52 7.1 5.3 18.4 SW 0.0 1029.6
14:30 17.0 51 6.8 6.3 15.8 WSW 0.0 1029.6
14:40 17.0 53 7.4 4.3 14.8 S 0.0 1029.6
14:50 16.9 53 7.3 4.4 15.8 SSW 0.0 1029.5
15:00 17.1 53 7.5 4.3 15.8 SW 0.0 1029.4
15:10 17.1 52 7.2 3.9 11.2 SSW 0.0 1029.5
15:20 16.6 53 7.0 6.0 18.4 WSW 0.0 1029.4
15:30 16.3 54 7.0 8.3 22.0 S 0.0 1029.5
15:40 16.1 55 7.1 3.3 19.4 SSW 0.0 1029.3
15:50 16.5 56 7.7 3.8 13.3 SSE 0.0 1029.5
16:00 16.4 56 7.6 4.0 13.3 S 0.0 1029.5
16:10 16.5 57 8.0 5.1 14.8 SSW 0.0 1029.6
16:20 16.4 56 7.6 4.1 14.8 S 0.0 1029.6
16:30 16.3 56 7.5 3.5 13.3 S 0.0 1029.6
16:40 16.3 56 7.5 5.5 18.4 S 0.0 1029.8
16:50 16.3 55 7.2 5.6 13.3 SSW 0.0 1029.9
17:00 16.4 56 7.6 5.2 12.2 SSW 0.0 1029.8
17:10 16.4 56 7.6 5.3 19.4 SSW 0.0 1029.9
17:20 16.4 56 7.6 5.1 19.4 S 0.0 1029.9
17:30 16.4 56 7.6 5.7 23.4 S 0.0 1030.2
17:40 16.1 55 7.1 3.7 9.7 SSW 0.0 1030.2
17:50 16.0 54 6.7 6.6 15.8 S 0.0 1030.2
18:00 15.9 54 6.6 3.6 12.2 SSW 0.0 1030.3
18:10 15.7 54 6.4 4.3 12.2 WSW 0.0 1030.3
18:20 15.6 54 6.3 2.7 11.2 SSW 0.0 1030.3
18:30 15.4 54 6.1 5.5 14.8 SSW 0.0 1030.4
18:40 15.3 55 6.3 3.6 9.7 SSW 0.0 1030.3
18:50 15.1 56 6.4 3.5 11.2 SW 0.0 1030.3
19:00 14.9 58 6.7 2.9 11.2 S 0.0 1030.3
19:10 14.8 59 6.9 3.1 8.6 SSW 0.0 1030.5
19:20 14.6 61 7.2 4.0 9.7 SSE 0.0 1030.5
19:30 14.3 63 7.4 4.5 14.8 S 0.0 1030.7
19:40 14.1 64 7.4 4.8 15.8 S 0.0 1030.6
19:50 13.9 67 7.9 3.6 11.2 SSE 0.0 1030.7
20:00 13.7 68 7.9 3.9 9.7 S 0.0 1030.9
20:10 13.6 69 8.0 1.1 6.1 S 0.0 1030.9
20:20 13.4 71 8.3 2.9 8.6 S 0.0 1030.8
20:30 13.3 71 8.2 3.3 9.7 S 0.0 1030.8
20:40 13.2 71 8.1 3.8 8.6 S 0.0 1030.8
20:50 13.0 70 7.7 2.8 7.2 SSE 0.0 1030.8
21:00 12.8 71 7.7 1.9 5.0 SSE 0.0 1030.7
21:10 12.5 72 7.6 2.5 5.0 SE 0.0 1030.6
21:20 12.5 72 7.6 3.4 11.2 SSE 0.0 1030.7
21:30 12.5 72 7.6 5.0 11.2 SE 0.0 1030.7
21:40 12.6 72 7.7 4.5 11.2 SE 0.0 1030.6
21:50 12.5 72 7.6 5.0 12.2 ESE 0.0 1030.5
22:00 12.4 72 7.5 6.3 12.2 SE 0.0 1030.5
22:10 12.4 72 7.5 5.7 11.2 ESE 0.0 1030.5
22:20 12.2 72 7.3 5.4 11.2 SE 0.0 1030.6
22:30 12.2 72 7.3 4.2 9.7 ESE 0.0 1030.7
22:40 12.2 72 7.3 6.8 14.8 ESE 0.0 1030.7
22:50 12.1 72 7.2 5.7 11.2 SE 0.0 1030.8
23:00 12.1 72 7.2 5.1 11.2 SE 0.0 1030.7
23:10 12.0 73 7.3 4.7 9.7 SE 0.0 1030.7
23:20 12.0 73 7.3 4.3 12.2 ESE 0.0 1030.5
23:30 11.9 74 7.4 4.5 9.7 SE 0.0 1030.5
23:40 11.8 74 7.3 5.1 12.2 SSE 0.0 1030.5
23:50 11.7 75 7.4 4.0 7.2 SE 0.0 1030.3